sensor_id;sensor_type;location;lat;lon;timestamp;P1;durP1;ratioP1;P2;durP2;ratioP2
29776;SDS011;16677;52.224;7.484;2022-09-09T00:02:08;6.13;;;4.43;;
29776;SDS011;16677;52.224;7.484;2022-09-09T00:10:52;8.67;;;4.57;;
29776;SDS011;16677;52.224;7.484;2022-09-09T00:13:18;10.93;;;4.67;;
29776;SDS011;16677;52.224;7.484;2022-09-09T00:19:06;8.23;;;5.27;;
29776;SDS011;16677;52.224;7.484;2022-09-09T00:21:50;7.27;;;4.50;;
29776;SDS011;16677;52.224;7.484;2022-09-09T00:24:29;6.63;;;4.80;;
29776;SDS011;16677;52.224;7.484;2022-09-09T00:27:29;6.87;;;5.20;;
29776;SDS011;16677;52.224;7.484;2022-09-09T00:30:19;8.77;;;4.80;;
29776;SDS011;16677;52.224;7.484;2022-09-09T00:32:49;7.43;;;4.97;;
29776;SDS011;16677;52.224;7.484;2022-09-09T00:35:25;7.03;;;4.80;;
29776;SDS011;16677;52.224;7.484;2022-09-09T00:38:15;7.50;;;5.20;;
29776;SDS011;16677;52.224;7.484;2022-09-09T00:41:03;11.80;;;5.57;;
29776;SDS011;16677;52.224;7.484;2022-09-09T00:43:46;9.10;;;5.80;;
29776;SDS011;16677;52.224;7.484;2022-09-09T00:52:32;9.40;;;5.63;;
29776;SDS011;16677;52.224;7.484;2022-09-09T00:55:19;11.03;;;6.67;;
29776;SDS011;16677;52.224;7.484;2022-09-09T00:57:54;8.50;;;7.20;;
29776;SDS011;16677;52.224;7.484;2022-09-09T01:00:22;10.80;;;7.73;;
29776;SDS011;16677;52.224;7.484;2022-09-09T01:05:45;9.60;;;7.07;;
29776;SDS011;16677;52.224;7.484;2022-09-09T01:08:35;10.20;;;7.30;;
29776;SDS011;16677;52.224;7.484;2022-09-09T01:11:22;9.50;;;7.33;;
29776;SDS011;16677;52.224;7.484;2022-09-09T01:13:53;9.77;;;7.37;;
29776;SDS011;16677;52.224;7.484;2022-09-09T01:16:30;10.13;;;5.83;;
29776;SDS011;16677;52.224;7.484;2022-09-09T01:18:58;7.70;;;5.63;;
29776;SDS011;16677;52.224;7.484;2022-09-09T01:27:36;8.07;;;5.70;;
29776;SDS011;16677;52.224;7.484;2022-09-09T01:30:13;7.63;;;6.03;;
29776;SDS011;16677;52.224;7.484;2022-09-09T01:32:48;7.27;;;5.10;;
29776;SDS011;16677;52.224;7.484;2022-09-09T01:38:11;11.13;;;6.00;;
29776;SDS011;16677;52.224;7.484;2022-09-09T01:40:38;9.43;;;5.73;;
29776;SDS011;16677;52.224;7.484;2022-09-09T01:43:05;8.70;;;5.23;;
29776;SDS011;16677;52.224;7.484;2022-09-09T01:45:33;6.43;;;4.47;;
29776;SDS011;16677;52.224;7.484;2022-09-09T01:48:01;5.57;;;3.87;;
29776;SDS011;16677;52.224;7.484;2022-09-09T01:50:29;5.33;;;3.70;;
29776;SDS011;16677;52.224;7.484;2022-09-09T01:52:57;3.93;;;3.53;;
29776;SDS011;16677;52.224;7.484;2022-09-09T01:55:32;4.43;;;2.97;;
29776;SDS011;16677;52.224;7.484;2022-09-09T01:58:16;5.57;;;3.23;;
29776;SDS011;16677;52.224;7.484;2022-09-09T02:01:02;4.37;;;2.80;;
29776;SDS011;16677;52.224;7.484;2022-09-09T02:03:39;2.80;;;2.37;;
29776;SDS011;16677;52.224;7.484;2022-09-09T02:06:14;4.47;;;2.47;;
29776;SDS011;16677;52.224;7.484;2022-09-09T02:08:55;2.50;;;2.10;;
29776;SDS011;16677;52.224;7.484;2022-09-09T02:11:24;3.40;;;2.33;;
29776;SDS011;16677;52.224;7.484;2022-09-09T02:13:54;5.82;;;2.70;;
29776;SDS011;16677;52.224;7.484;2022-09-09T02:16:30;3.03;;;2.30;;
29776;SDS011;16677;52.224;7.484;2022-09-09T02:21:41;4.00;;;2.40;;
29776;SDS011;16677;52.224;7.484;2022-09-09T02:24:10;4.17;;;2.37;;
29776;SDS011;16677;52.224;7.484;2022-09-09T02:26:41;4.63;;;2.73;;
29776;SDS011;16677;52.224;7.484;2022-09-09T02:29:17;3.17;;;2.50;;
29776;SDS011;16677;52.224;7.484;2022-09-09T02:31:47;4.40;;;3.03;;
29776;SDS011;16677;52.224;7.484;2022-09-09T02:34:17;3.83;;;3.13;;
29776;SDS011;16677;52.224;7.484;2022-09-09T02:36:47;3.70;;;3.27;;
29776;SDS011;16677;52.224;7.484;2022-09-09T02:39:16;6.20;;;3.40;;
29776;SDS011;16677;52.224;7.484;2022-09-09T02:41:43;6.10;;;3.73;;
29776;SDS011;16677;52.224;7.484;2022-09-09T02:44:14;7.93;;;3.10;;
29776;SDS011;16677;52.224;7.484;2022-09-09T02:49:28;7.37;;;3.80;;
29776;SDS011;16677;52.224;7.484;2022-09-09T02:52:21;4.83;;;3.70;;
29776;SDS011;16677;52.224;7.484;2022-09-09T02:54:57;6.93;;;4.00;;
29776;SDS011;16677;52.224;7.484;2022-09-09T02:57:31;5.17;;;3.70;;
29776;SDS011;16677;52.224;7.484;2022-09-09T03:00:04;6.13;;;3.83;;
29776;SDS011;16677;52.224;7.484;2022-09-09T03:02:32;4.77;;;3.80;;
29776;SDS011;16677;52.224;7.484;2022-09-09T03:05:02;4.77;;;4.37;;
29776;SDS011;16677;52.224;7.484;2022-09-09T03:07:30;4.93;;;4.47;;
29776;SDS011;16677;52.224;7.484;2022-09-09T03:09:57;4.63;;;4.10;;
29776;SDS011;16677;52.224;7.484;2022-09-09T03:12:24;9.23;;;5.20;;
29776;SDS011;16677;52.224;7.484;2022-09-09T03:15:04;6.93;;;5.73;;
29776;SDS011;16677;52.224;7.484;2022-09-09T03:17:32;6.27;;;5.67;;
29776;SDS011;16677;52.224;7.484;2022-09-09T03:20:01;8.83;;;6.57;;
29776;SDS011;16677;52.224;7.484;2022-09-09T03:22:29;8.50;;;7.60;;
29776;SDS011;16677;52.224;7.484;2022-09-09T03:24:56;8.00;;;7.20;;
29776;SDS011;16677;52.224;7.484;2022-09-09T03:27:23;9.80;;;7.70;;
29776;SDS011;16677;52.224;7.484;2022-09-09T03:29:50;9.73;;;8.07;;
29776;SDS011;16677;52.224;7.484;2022-09-09T03:32:18;9.17;;;8.27;;
29776;SDS011;16677;52.224;7.484;2022-09-09T03:34:45;9.20;;;8.27;;
29776;SDS011;16677;52.224;7.484;2022-09-09T03:37:13;10.97;;;8.97;;
29776;SDS011;16677;52.224;7.484;2022-09-09T03:39:40;12.80;;;9.17;;
29776;SDS011;16677;52.224;7.484;2022-09-09T03:42:07;11.10;;;9.67;;
29776;SDS011;16677;52.224;7.484;2022-09-09T03:44:34;11.70;;;10.50;;
29776;SDS011;16677;52.224;7.484;2022-09-09T03:47:01;10.87;;;9.73;;
29776;SDS011;16677;52.224;7.484;2022-09-09T03:49:28;10.50;;;9.40;;
29776;SDS011;16677;52.224;7.484;2022-09-09T03:51:55;11.77;;;10.63;;
29776;SDS011;16677;52.224;7.484;2022-09-09T03:54:24;11.00;;;10.03;;
29776;SDS011;16677;52.224;7.484;2022-09-09T03:56:51;12.07;;;9.80;;
29776;SDS011;16677;52.224;7.484;2022-09-09T03:59:18;14.23;;;10.13;;
29776;SDS011;16677;52.224;7.484;2022-09-09T04:01:45;12.97;;;10.50;;
29776;SDS011;16677;52.224;7.484;2022-09-09T04:04:13;13.20;;;10.93;;
29776;SDS011;16677;52.224;7.484;2022-09-09T04:06:45;11.70;;;10.50;;
29776;SDS011;16677;52.224;7.484;2022-09-09T04:09:18;12.23;;;10.63;;
29776;SDS011;16677;52.224;7.484;2022-09-09T04:11:45;14.03;;;10.07;;
29776;SDS011;16677;52.224;7.484;2022-09-09T04:14:12;11.63;;;10.20;;
29776;SDS011;16677;52.224;7.484;2022-09-09T04:16:39;12.93;;;10.17;;
29776;SDS011;16677;52.224;7.484;2022-09-09T04:19:09;11.30;;;9.53;;
29776;SDS011;16677;52.224;7.484;2022-09-09T04:21:42;12.17;;;9.90;;
29776;SDS011;16677;52.224;7.484;2022-09-09T04:24:11;10.87;;;9.30;;
29776;SDS011;16677;52.224;7.484;2022-09-09T04:26:37;9.47;;;8.57;;
29776;SDS011;16677;52.224;7.484;2022-09-09T04:29:05;9.93;;;9.03;;
29776;SDS011;16677;52.224;7.484;2022-09-09T04:31:33;9.90;;;8.67;;
29776;SDS011;16677;52.224;7.484;2022-09-09T04:34:08;10.90;;;8.50;;
29776;SDS011;16677;52.224;7.484;2022-09-09T04:37:10;10.07;;;9.10;;
29776;SDS011;16677;52.224;7.484;2022-09-09T04:39:37;10.93;;;9.67;;
29776;SDS011;16677;52.224;7.484;2022-09-09T04:42:04;11.23;;;9.33;;
29776;SDS011;16677;52.224;7.484;2022-09-09T04:44:31;11.67;;;8.97;;
29776;SDS011;16677;52.224;7.484;2022-09-09T04:46:58;11.80;;;8.23;;
29776;SDS011;16677;52.224;7.484;2022-09-09T04:49:25;9.10;;;8.20;;
29776;SDS011;16677;52.224;7.484;2022-09-09T04:51:52;8.80;;;8.00;;
29776;SDS011;16677;52.224;7.484;2022-09-09T04:54:41;9.37;;;8.47;;
29776;SDS011;16677;52.224;7.484;2022-09-09T04:57:27;9.30;;;8.40;;
29776;SDS011;16677;52.224;7.484;2022-09-09T05:00:33;9.60;;;8.70;;
29776;SDS011;16677;52.224;7.484;2022-09-09T05:03:06;8.83;;;7.93;;
29776;SDS011;16677;52.224;7.484;2022-09-09T05:05:38;9.43;;;8.00;;
29776;SDS011;16677;52.224;7.484;2022-09-09T05:08:23;13.03;;;8.40;;
29776;SDS011;16677;52.224;7.484;2022-09-09T05:10:50;8.83;;;7.50;;
29776;SDS011;16677;52.224;7.484;2022-09-09T05:13:17;8.47;;;7.63;;
29776;SDS011;16677;52.224;7.484;2022-09-09T05:15:51;9.90;;;7.30;;
29776;SDS011;16677;52.224;7.484;2022-09-09T05:18:21;8.67;;;7.47;;
29776;SDS011;16677;52.224;7.484;2022-09-09T05:20:49;11.57;;;8.10;;
29776;SDS011;16677;52.224;7.484;2022-09-09T05:23:17;9.23;;;7.00;;
29776;SDS011;16677;52.224;7.484;2022-09-09T05:25:53;10.63;;;7.00;;
29776;SDS011;16677;52.224;7.484;2022-09-09T05:28:22;10.70;;;6.47;;
29776;SDS011;16677;52.224;7.484;2022-09-09T05:31:00;7.90;;;7.10;;
29776;SDS011;16677;52.224;7.484;2022-09-09T05:33:35;9.90;;;6.13;;
29776;SDS011;16677;52.224;7.484;2022-09-09T05:36:03;7.73;;;6.60;;
29776;SDS011;16677;52.224;7.484;2022-09-09T05:38:32;7.43;;;6.70;;
29776;SDS011;16677;52.224;7.484;2022-09-09T05:41:07;8.63;;;6.23;;
29776;SDS011;16677;52.224;7.484;2022-09-09T05:43:38;7.80;;;5.83;;
29776;SDS011;16677;52.224;7.484;2022-09-09T05:46:08;8.23;;;6.10;;
29776;SDS011;16677;52.224;7.484;2022-09-09T05:48:57;7.53;;;6.20;;
29776;SDS011;16677;52.224;7.484;2022-09-09T05:51:28;8.57;;;6.13;;
29776;SDS011;16677;52.224;7.484;2022-09-09T05:53:58;6.63;;;6.03;;
29776;SDS011;16677;52.224;7.484;2022-09-09T05:56:26;7.67;;;5.60;;
29776;SDS011;16677;52.224;7.484;2022-09-09T05:58:54;11.30;;;5.53;;
29776;SDS011;16677;52.224;7.484;2022-09-09T06:01:23;7.03;;;5.90;;
29776;SDS011;16677;52.224;7.484;2022-09-09T06:03:58;6.97;;;5.17;;
29776;SDS011;16677;52.224;7.484;2022-09-09T06:06:26;8.57;;;5.57;;
29776;SDS011;16677;52.224;7.484;2022-09-09T06:08:57;7.97;;;5.53;;
29776;SDS011;16677;52.224;7.484;2022-09-09T06:11:26;7.00;;;6.27;;
29776;SDS011;16677;52.224;7.484;2022-09-09T06:13:55;7.77;;;5.53;;
29776;SDS011;16677;52.224;7.484;2022-09-09T06:16:24;11.83;;;6.03;;
29776;SDS011;16677;52.224;7.484;2022-09-09T06:18:56;9.13;;;6.03;;
29776;SDS011;16677;52.224;7.484;2022-09-09T06:21:27;6.37;;;5.23;;
29776;SDS011;16677;52.224;7.484;2022-09-09T06:23:59;8.63;;;6.03;;
29776;SDS011;16677;52.224;7.484;2022-09-09T06:26:30;5.87;;;5.27;;
29776;SDS011;16677;52.224;7.484;2022-09-09T06:28:59;9.87;;;5.83;;
29776;SDS011;16677;52.224;7.484;2022-09-09T06:31:30;6.77;;;5.90;;
29776;SDS011;16677;52.224;7.484;2022-09-09T06:34:00;6.90;;;5.83;;
29776;SDS011;16677;52.224;7.484;2022-09-09T06:36:29;7.37;;;5.77;;
29776;SDS011;16677;52.224;7.484;2022-09-09T06:38:57;8.80;;;6.17;;
29776;SDS011;16677;52.224;7.484;2022-09-09T06:41:26;9.47;;;5.07;;
29776;SDS011;16677;52.224;7.484;2022-09-09T06:43:54;7.67;;;5.47;;
29776;SDS011;16677;52.224;7.484;2022-09-09T06:46:23;9.27;;;4.60;;
29776;SDS011;16677;52.224;7.484;2022-09-09T06:48:55;8.23;;;4.50;;
29776;SDS011;16677;52.224;7.484;2022-09-09T06:51:23;7.23;;;4.47;;
29776;SDS011;16677;52.224;7.484;2022-09-09T06:53:55;5.53;;;4.80;;
29776;SDS011;16677;52.224;7.484;2022-09-09T06:56:28;6.50;;;4.33;;
29776;SDS011;16677;52.224;7.484;2022-09-09T06:58:57;7.17;;;4.60;;
29776;SDS011;16677;52.224;7.484;2022-09-09T07:01:31;5.43;;;4.37;;
29776;SDS011;16677;52.224;7.484;2022-09-09T07:04:00;7.57;;;4.60;;
29776;SDS011;16677;52.224;7.484;2022-09-09T07:06:29;10.20;;;4.07;;
29776;SDS011;16677;52.224;7.484;2022-09-09T07:08:59;5.63;;;4.00;;
29776;SDS011;16677;52.224;7.484;2022-09-09T07:11:37;5.97;;;4.60;;
29776;SDS011;16677;52.224;7.484;2022-09-09T07:14:12;6.13;;;4.23;;
29776;SDS011;16677;52.224;7.484;2022-09-09T07:16:41;8.17;;;4.00;;
29776;SDS011;16677;52.224;7.484;2022-09-09T07:19:09;8.20;;;4.40;;
29776;SDS011;16677;52.224;7.484;2022-09-09T07:21:37;6.87;;;4.27;;
29776;SDS011;16677;52.224;7.484;2022-09-09T07:24:06;6.20;;;3.83;;
29776;SDS011;16677;52.224;7.484;2022-09-09T07:26:38;10.13;;;4.80;;
29776;SDS011;16677;52.224;7.484;2022-09-09T07:29:07;5.57;;;4.10;;
29776;SDS011;16677;52.224;7.484;2022-09-09T07:31:36;5.30;;;3.97;;
29776;SDS011;16677;52.224;7.484;2022-09-09T07:34:06;6.93;;;4.07;;
29776;SDS011;16677;52.224;7.484;2022-09-09T07:36:34;7.33;;;3.93;;
29776;SDS011;16677;52.224;7.484;2022-09-09T07:39:05;7.90;;;4.03;;
29776;SDS011;16677;52.224;7.484;2022-09-09T07:41:35;7.30;;;3.47;;
29776;SDS011;16677;52.224;7.484;2022-09-09T07:44:05;9.80;;;3.43;;
29776;SDS011;16677;52.224;7.484;2022-09-09T07:46:44;7.27;;;3.67;;
29776;SDS011;16677;52.224;7.484;2022-09-09T07:49:11;10.03;;;3.73;;
29776;SDS011;16677;52.224;7.484;2022-09-09T07:51:39;4.93;;;2.93;;
29776;SDS011;16677;52.224;7.484;2022-09-09T07:54:10;7.00;;;3.30;;
29776;SDS011;16677;52.224;7.484;2022-09-09T07:56:38;5.70;;;3.00;;
29776;SDS011;16677;52.224;7.484;2022-09-09T07:59:06;7.43;;;3.30;;
29776;SDS011;16677;52.224;7.484;2022-09-09T08:01:39;9.90;;;3.37;;
29776;SDS011;16677;52.224;7.484;2022-09-09T08:04:08;8.93;;;3.20;;
29776;SDS011;16677;52.224;7.484;2022-09-09T08:06:42;10.33;;;2.83;;
29776;SDS011;16677;52.224;7.484;2022-09-09T08:09:11;6.60;;;3.10;;
29776;SDS011;16677;52.224;7.484;2022-09-09T08:11:38;10.70;;;3.40;;
29776;SDS011;16677;52.224;7.484;2022-09-09T08:14:07;12.07;;;3.40;;
29776;SDS011;16677;52.224;7.484;2022-09-09T08:16:36;7.77;;;3.30;;
29776;SDS011;16677;52.224;7.484;2022-09-09T08:19:05;5.83;;;2.93;;
29776;SDS011;16677;52.224;7.484;2022-09-09T08:21:34;4.53;;;2.83;;
29776;SDS011;16677;52.224;7.484;2022-09-09T08:24:03;8.40;;;2.80;;
29776;SDS011;16677;52.224;7.484;2022-09-09T08:26:34;11.43;;;3.23;;
29776;SDS011;16677;52.224;7.484;2022-09-09T08:29:10;6.47;;;3.07;;
29776;SDS011;16677;52.224;7.484;2022-09-09T08:31:43;10.60;;;3.10;;
29776;SDS011;16677;52.224;7.484;2022-09-09T08:34:13;7.50;;;2.87;;
29776;SDS011;16677;52.224;7.484;2022-09-09T08:36:53;8.63;;;2.67;;
29776;SDS011;16677;52.224;7.484;2022-09-09T08:39:21;6.20;;;2.87;;
29776;SDS011;16677;52.224;7.484;2022-09-09T08:52:17;8.87;;;3.60;;
29776;SDS011;16677;52.224;7.484;2022-09-09T08:54:49;10.83;;;3.97;;
29776;SDS011;16677;52.224;7.484;2022-09-09T08:57:20;8.10;;;2.93;;
29776;SDS011;16677;52.224;7.484;2022-09-09T08:59:53;12.13;;;3.30;;
29776;SDS011;16677;52.224;7.484;2022-09-09T09:02:28;5.77;;;3.10;;
29776;SDS011;16677;52.224;7.484;2022-09-09T09:13:30;7.70;;;3.80;;
29776;SDS011;16677;52.224;7.484;2022-09-09T09:15:55;10.13;;;4.33;;
29776;SDS011;16677;52.224;7.484;2022-09-09T09:18:26;7.67;;;3.90;;
29776;SDS011;16677;52.224;7.484;2022-09-09T09:24:07;7.60;;;4.50;;
29776;SDS011;16677;52.224;7.484;2022-09-09T09:26:38;6.13;;;4.20;;
29776;SDS011;16677;52.224;7.484;2022-09-09T09:29:18;9.17;;;4.27;;
29776;SDS011;16677;52.224;7.484;2022-09-09T09:31:47;7.90;;;3.90;;
29776;SDS011;16677;52.224;7.484;2022-09-09T09:34:18;8.90;;;3.93;;
29776;SDS011;16677;52.224;7.484;2022-09-09T09:36:48;6.13;;;3.20;;
29776;SDS011;16677;52.224;7.484;2022-09-09T09:39:24;4.60;;;3.23;;
29776;SDS011;16677;52.224;7.484;2022-09-09T09:42:16;10.33;;;2.70;;
29776;SDS011;16677;52.224;7.484;2022-09-09T09:44:48;5.63;;;2.63;;
29776;SDS011;16677;52.224;7.484;2022-09-09T09:47:16;5.63;;;2.60;;
29776;SDS011;16677;52.224;7.484;2022-09-09T09:49:58;5.33;;;2.87;;
29776;SDS011;16677;52.224;7.484;2022-09-09T09:52:26;6.27;;;2.97;;
29776;SDS011;16677;52.224;7.484;2022-09-09T09:54:56;6.73;;;2.83;;
29776;SDS011;16677;52.224;7.484;2022-09-09T09:57:32;6.63;;;2.85;;
29776;SDS011;16677;52.224;7.484;2022-09-09T10:00:19;7.63;;;2.37;;
29776;SDS011;16677;52.224;7.484;2022-09-09T10:02:48;4.60;;;2.30;;
29776;SDS011;16677;52.224;7.484;2022-09-09T10:05:24;6.10;;;2.20;;
29776;SDS011;16677;52.224;7.484;2022-09-09T10:08:13;8.27;;;2.37;;
29776;SDS011;16677;52.224;7.484;2022-09-09T10:30:09;5.93;;;2.23;;
29776;SDS011;16677;52.224;7.484;2022-09-09T10:32:46;6.17;;;2.00;;
29776;SDS011;16677;52.224;7.484;2022-09-09T10:35:34;5.33;;;2.03;;
29776;SDS011;16677;52.224;7.484;2022-09-09T10:38:17;5.43;;;2.20;;
29776;SDS011;16677;52.224;7.484;2022-09-09T10:40:49;5.17;;;2.67;;
29776;SDS011;16677;52.224;7.484;2022-09-09T10:52:08;4.53;;;1.70;;
29776;SDS011;16677;52.224;7.484;2022-09-09T10:57:36;2.20;;;1.60;;
29776;SDS011;16677;52.224;7.484;2022-09-09T11:00:22;5.13;;;1.93;;
29776;SDS011;16677;52.224;7.484;2022-09-09T11:03:36;4.00;;;1.70;;
29776;SDS011;16677;52.224;7.484;2022-09-09T11:05:49;5.00;;;1.70;;
29776;SDS011;16677;52.224;7.484;2022-09-09T11:08:28;2.63;;;1.50;;
29776;SDS011;16677;52.224;7.484;2022-09-09T11:16:22;4.67;;;1.80;;
29776;SDS011;16677;52.224;7.484;2022-09-09T11:19:11;2.83;;;1.50;;
29776;SDS011;16677;52.224;7.484;2022-09-09T11:21:58;5.78;;;1.92;;
29776;SDS011;16677;52.224;7.484;2022-09-09T11:24:33;4.47;;;1.73;;
29776;SDS011;16677;52.224;7.484;2022-09-09T11:27:12;4.30;;;1.50;;
29776;SDS011;16677;52.224;7.484;2022-09-09T11:41:01;3.70;;;1.40;;
29776;SDS011;16677;52.224;7.484;2022-09-09T11:43:33;3.10;;;1.40;;
29776;SDS011;16677;52.224;7.484;2022-09-09T11:46:07;4.77;;;1.77;;
29776;SDS011;16677;52.224;7.484;2022-09-09T11:51:07;4.65;;;1.67;;
29776;SDS011;16677;52.224;7.484;2022-09-09T11:53:52;4.80;;;1.60;;
29776;SDS011;16677;52.224;7.484;2022-09-09T11:58:58;3.97;;;1.67;;
29776;SDS011;16677;52.224;7.484;2022-09-09T12:01:30;4.73;;;1.80;;
29776;SDS011;16677;52.224;7.484;2022-09-09T12:04:05;4.00;;;1.50;;
29776;SDS011;16677;52.224;7.484;2022-09-09T12:06:46;4.17;;;1.70;;
29776;SDS011;16677;52.224;7.484;2022-09-09T12:14:42;4.07;;;1.43;;
29776;SDS011;16677;52.224;7.484;2022-09-09T12:17:24;5.43;;;1.70;;
29776;SDS011;16677;52.224;7.484;2022-09-09T12:25:35;4.03;;;1.77;;
29776;SDS011;16677;52.224;7.484;2022-09-09T12:28:24;5.57;;;1.70;;
29776;SDS011;16677;52.224;7.484;2022-09-09T12:31:21;3.45;;;1.58;;
29776;SDS011;16677;52.224;7.484;2022-09-09T12:33:45;4.50;;;2.35;;
29776;SDS011;16677;52.224;7.484;2022-09-09T12:36:17;4.60;;;1.40;;
29776;SDS011;16677;52.224;7.484;2022-09-09T12:38:47;4.88;;;1.73;;
29776;SDS011;16677;52.224;7.484;2022-09-09T12:41:20;8.23;;;2.00;;
29776;SDS011;16677;52.224;7.484;2022-09-09T12:43:50;2.40;;;1.47;;
29776;SDS011;16677;52.224;7.484;2022-09-09T12:46:23;4.87;;;2.20;;
29776;SDS011;16677;52.224;7.484;2022-09-09T12:51:52;4.53;;;2.00;;
29776;SDS011;16677;52.224;7.484;2022-09-09T12:54:20;4.17;;;2.20;;
29776;SDS011;16677;52.224;7.484;2022-09-09T12:56:47;7.43;;;2.30;;
29776;SDS011;16677;52.224;7.484;2022-09-09T12:59:23;6.37;;;2.33;;
29776;SDS011;16677;52.224;7.484;2022-09-09T13:01:59;6.80;;;1.90;;
29776;SDS011;16677;52.224;7.484;2022-09-09T13:04:26;6.23;;;2.03;;
29776;SDS011;16677;52.224;7.484;2022-09-09T13:06:53;5.17;;;1.93;;
29776;SDS011;16677;52.224;7.484;2022-09-09T13:09:21;5.13;;;1.93;;
29776;SDS011;16677;52.224;7.484;2022-09-09T13:11:50;5.07;;;1.70;;
29776;SDS011;16677;52.224;7.484;2022-09-09T13:14:28;2.70;;;1.70;;
29776;SDS011;16677;52.224;7.484;2022-09-09T13:16:59;4.97;;;2.00;;
29776;SDS011;16677;52.224;7.484;2022-09-09T13:19:29;1.80;;;1.33;;
29776;SDS011;16677;52.224;7.484;2022-09-09T13:22:11;3.17;;;1.40;;
29776;SDS011;16677;52.224;7.484;2022-09-09T13:24:39;3.75;;;1.88;;
29776;SDS011;16677;52.224;7.484;2022-09-09T13:29:55;5.00;;;1.77;;
29776;SDS011;16677;52.224;7.484;2022-09-09T13:32:24;4.47;;;1.70;;
29776;SDS011;16677;52.224;7.484;2022-09-09T13:34:57;3.40;;;1.40;;
29776;SDS011;16677;52.224;7.484;2022-09-09T13:39:56;3.50;;;1.53;;
29776;SDS011;16677;52.224;7.484;2022-09-09T13:42:27;3.50;;;1.20;;
29776;SDS011;16677;52.224;7.484;2022-09-09T13:44:57;3.60;;;1.50;;
29776;SDS011;16677;52.224;7.484;2022-09-09T13:50:18;3.83;;;1.33;;
29776;SDS011;16677;52.224;7.484;2022-09-09T13:52:51;4.30;;;1.30;;
29776;SDS011;16677;52.224;7.484;2022-09-09T13:55:20;3.90;;;1.67;;
29776;SDS011;16677;52.224;7.484;2022-09-09T13:57:59;6.03;;;2.13;;
29776;SDS011;16677;52.224;7.484;2022-09-09T14:00:31;4.17;;;1.80;;
29776;SDS011;16677;52.224;7.484;2022-09-09T14:03:00;4.13;;;1.63;;
29776;SDS011;16677;52.224;7.484;2022-09-09T14:05:30;3.57;;;1.50;;
29776;SDS011;16677;52.224;7.484;2022-09-09T14:07:58;7.70;;;1.70;;
29776;SDS011;16677;52.224;7.484;2022-09-09T14:10:29;3.00;;;1.57;;
29776;SDS011;16677;52.224;7.484;2022-09-09T14:12:56;3.03;;;1.60;;
29776;SDS011;16677;52.224;7.484;2022-09-09T14:15:23;3.73;;;1.10;;
29776;SDS011;16677;52.224;7.484;2022-09-09T14:17:50;4.13;;;1.50;;
29776;SDS011;16677;52.224;7.484;2022-09-09T14:20:18;2.80;;;1.30;;
29776;SDS011;16677;52.224;7.484;2022-09-09T14:22:45;2.93;;;1.40;;
29776;SDS011;16677;52.224;7.484;2022-09-09T14:25:13;2.73;;;1.60;;
29776;SDS011;16677;52.224;7.484;2022-09-09T14:27:40;4.53;;;1.60;;
29776;SDS011;16677;52.224;7.484;2022-09-09T14:30:08;5.23;;;1.80;;
29776;SDS011;16677;52.224;7.484;2022-09-09T14:32:36;7.60;;;2.17;;
29776;SDS011;16677;52.224;7.484;2022-09-09T14:35:03;8.10;;;2.20;;
29776;SDS011;16677;52.224;7.484;2022-09-09T14:37:30;5.13;;;1.90;;
29776;SDS011;16677;52.224;7.484;2022-09-09T14:39:59;6.43;;;2.17;;
29776;SDS011;16677;52.224;7.484;2022-09-09T14:42:28;6.03;;;2.40;;
29776;SDS011;16677;52.224;7.484;2022-09-09T14:44:56;7.97;;;2.50;;
29776;SDS011;16677;52.224;7.484;2022-09-09T14:47:23;2.97;;;2.33;;
29776;SDS011;16677;52.224;7.484;2022-09-09T14:49:50;6.57;;;3.00;;
29776;SDS011;16677;52.224;7.484;2022-09-09T14:52:18;5.77;;;2.87;;
29776;SDS011;16677;52.224;7.484;2022-09-09T14:54:45;5.30;;;2.67;;
29776;SDS011;16677;52.224;7.484;2022-09-09T14:57:12;5.40;;;3.10;;
29776;SDS011;16677;52.224;7.484;2022-09-09T14:59:40;4.93;;;3.17;;
29776;SDS011;16677;52.224;7.484;2022-09-09T15:02:08;5.90;;;2.87;;
29776;SDS011;16677;52.224;7.484;2022-09-09T15:04:35;6.57;;;2.90;;
29776;SDS011;16677;52.224;7.484;2022-09-09T15:07:02;6.27;;;2.80;;
29776;SDS011;16677;52.224;7.484;2022-09-09T15:09:29;3.83;;;2.57;;
29776;SDS011;16677;52.224;7.484;2022-09-09T15:11:57;4.70;;;2.87;;
29776;SDS011;16677;52.224;7.484;2022-09-09T15:14:24;3.70;;;2.33;;
29776;SDS011;16677;52.224;7.484;2022-09-09T15:16:52;3.97;;;2.40;;
29776;SDS011;16677;52.224;7.484;2022-09-09T15:19:19;3.17;;;2.23;;
29776;SDS011;16677;52.224;7.484;2022-09-09T15:21:46;4.87;;;2.40;;
29776;SDS011;16677;52.224;7.484;2022-09-09T15:24:14;2.47;;;1.90;;
29776;SDS011;16677;52.224;7.484;2022-09-09T15:26:44;3.40;;;2.23;;
29776;SDS011;16677;52.224;7.484;2022-09-09T15:29:11;5.07;;;2.30;;
29776;SDS011;16677;52.224;7.484;2022-09-09T15:31:38;3.60;;;2.10;;
29776;SDS011;16677;52.224;7.484;2022-09-09T15:34:05;6.50;;;2.10;;
29776;SDS011;16677;52.224;7.484;2022-09-09T15:36:37;4.13;;;1.70;;
29776;SDS011;16677;52.224;7.484;2022-09-09T15:39:15;3.70;;;1.80;;
29776;SDS011;16677;52.224;7.484;2022-09-09T15:41:44;4.47;;;1.83;;
29776;SDS011;16677;52.224;7.484;2022-09-09T15:44:13;4.90;;;1.90;;
29776;SDS011;16677;52.224;7.484;2022-09-09T15:46:43;3.07;;;1.50;;
29776;SDS011;16677;52.224;7.484;2022-09-09T15:49:24;3.53;;;2.00;;
29776;SDS011;16677;52.224;7.484;2022-09-09T15:51:53;4.37;;;1.90;;
29776;SDS011;16677;52.224;7.484;2022-09-09T15:54:22;3.87;;;2.00;;
29776;SDS011;16677;52.224;7.484;2022-09-09T15:56:51;3.20;;;1.80;;
29776;SDS011;16677;52.224;7.484;2022-09-09T15:59:23;3.23;;;1.63;;
29776;SDS011;16677;52.224;7.484;2022-09-09T16:01:51;2.97;;;1.80;;
29776;SDS011;16677;52.224;7.484;2022-09-09T16:04:19;4.50;;;1.87;;
29776;SDS011;16677;52.224;7.484;2022-09-09T16:06:53;3.03;;;1.50;;
29776;SDS011;16677;52.224;7.484;2022-09-09T16:09:27;3.47;;;1.83;;
29776;SDS011;16677;52.224;7.484;2022-09-09T16:11:56;2.37;;;1.20;;
29776;SDS011;16677;52.224;7.484;2022-09-09T16:14:25;2.53;;;1.50;;
29776;SDS011;16677;52.224;7.484;2022-09-09T16:16:52;2.83;;;1.70;;
29776;SDS011;16677;52.224;7.484;2022-09-09T16:19:19;2.97;;;1.27;;
29776;SDS011;16677;52.224;7.484;2022-09-09T16:21:47;2.27;;;1.50;;
29776;SDS011;16677;52.224;7.484;2022-09-09T16:24:16;2.47;;;1.20;;
29776;SDS011;16677;52.224;7.484;2022-09-09T16:26:47;1.83;;;1.30;;
29776;SDS011;16677;52.224;7.484;2022-09-09T16:29:17;1.70;;;1.40;;
29776;SDS011;16677;52.224;7.484;2022-09-09T16:31:46;4.17;;;1.70;;
29776;SDS011;16677;52.224;7.484;2022-09-09T16:34:15;4.70;;;1.47;;
29776;SDS011;16677;52.224;7.484;2022-09-09T16:36:44;2.90;;;1.10;;
29776;SDS011;16677;52.224;7.484;2022-09-09T16:39:14;4.97;;;1.63;;
29776;SDS011;16677;52.224;7.484;2022-09-09T16:41:43;2.47;;;1.43;;
29776;SDS011;16677;52.224;7.484;2022-09-09T16:44:12;3.33;;;1.53;;
29776;SDS011;16677;52.224;7.484;2022-09-09T16:46:42;4.87;;;1.50;;
29776;SDS011;16677;52.224;7.484;2022-09-09T16:49:11;6.50;;;2.07;;
29776;SDS011;16677;52.224;7.484;2022-09-09T16:51:40;2.53;;;1.50;;
29776;SDS011;16677;52.224;7.484;2022-09-09T16:54:13;3.63;;;1.70;;
29776;SDS011;16677;52.224;7.484;2022-09-09T16:56:43;2.57;;;1.40;;
29776;SDS011;16677;52.224;7.484;2022-09-09T16:59:16;4.83;;;1.70;;
29776;SDS011;16677;52.224;7.484;2022-09-09T17:01:46;2.37;;;1.50;;
29776;SDS011;16677;52.224;7.484;2022-09-09T17:04:16;3.20;;;1.60;;
29776;SDS011;16677;52.224;7.484;2022-09-09T17:06:51;2.53;;;1.73;;
29776;SDS011;16677;52.224;7.484;2022-09-09T17:09:19;4.67;;;1.93;;
29776;SDS011;16677;52.224;7.484;2022-09-09T17:12:02;4.03;;;1.80;;
29776;SDS011;16677;52.224;7.484;2022-09-09T17:14:29;4.60;;;1.87;;
29776;SDS011;16677;52.224;7.484;2022-09-09T17:16:57;2.90;;;1.77;;
29776;SDS011;16677;52.224;7.484;2022-09-09T17:19:44;3.03;;;1.73;;
29776;SDS011;16677;52.224;7.484;2022-09-09T17:22:11;2.53;;;1.70;;
29776;SDS011;16677;52.224;7.484;2022-09-09T17:24:42;2.17;;;1.47;;